Time;durP1;ratioP1;P1;durP2;ratioP2;P2;SDS_P1;SDS_P2;PMS_P1;PMS_P2;Temp;Humidity;BMP_temperature;BMP_pressure;BME280_temperature;BME280_humidity;BME280_pressure;Samples;Min_cycle;Max_cycle;Signal;HPM_P1;HPM_P2
2022/12/14 00:01:13;;;;;;;33.55;18.73;;;-2.70;99.90;;;;;;5104989;28;20055;-87
2022/12/14 00:03:39;;;;;;;37.95;19.13;;;-2.70;99.90;;;;;;5109226;28;20551;-87
2022/12/14 00:06:13;;;;;;;38.10;19.55;;;-2.70;99.90;;;;;;5104062;28;20043;-88
2022/12/14 00:08:39;;;;;;;37.45;18.83;;;-2.70;99.90;;;;;;5090075;28;20051;-87
2022/12/14 00:11:05;;;;;;;37.90;18.67;;;-2.80;99.90;;;;;;5105129;28;20130;-85
2022/12/14 00:13:31;;;;;;;35.92;19.83;;;-2.80;99.90;;;;;;5105914;28;20130;-87
2022/12/14 00:15:57;;;;;;;36.85;19.65;;;-2.80;99.90;;;;;;5106794;28;20418;-87
2022/12/14 00:18:22;;;;;;;41.05;20.77;;;-2.80;99.90;;;;;;5105353;28;20426;-87
2022/12/14 00:20:48;;;;;;;39.08;20.38;;;-2.90;99.90;;;;;;5073532;28;20047;-87
2022/12/14 00:23:13;;;;;;;37.58;20.73;;;-2.90;99.90;;;;;;5087283;28;20120;-87
2022/12/14 00:25:39;;;;;;;38.35;19.83;;;-3.00;99.90;;;;;;5073033;28;20518;-87
2022/12/14 00:28:05;;;;;;;37.58;17.77;;;-3.00;99.90;;;;;;5105087;28;20471;-87
2022/12/14 00:30:31;;;;;;;39.75;20.27;;;-3.10;99.90;;;;;;5106158;28;20134;-87
2022/12/14 00:32:56;;;;;;;41.63;20.05;;;-3.20;99.90;;;;;;5105556;28;20126;-86
2022/12/14 00:35:22;;;;;;;35.03;19.48;;;-3.20;99.90;;;;;;5087358;28;20398;-86
2022/12/14 00:37:48;;;;;;;34.67;19.30;;;-3.30;99.90;;;;;;5089524;28;20040;-86
2022/12/14 00:40:14;;;;;;;39.05;20.13;;;-3.40;99.90;;;;;;5085869;28;20044;-86
2022/12/14 00:42:39;;;;;;;35.85;18.63;;;-3.40;99.90;;;;;;5089440;28;20076;-86
2022/12/14 00:45:06;;;;;;;40.00;19.77;;;-3.50;99.90;;;;;;5086804;28;20075;-86
2022/12/14 00:47:32;;;;;;;41.60;19.52;;;-3.50;99.90;;;;;;5105579;28;20129;-86
2022/12/14 00:49:58;;;;;;;41.97;19.15;;;-2.60;99.90;;;;;;5104808;28;20075;-85
2022/12/14 00:52:23;;;;;;;35.90;18.50;;;-3.60;99.90;;;;;;5106380;28;20039;-86
2022/12/14 00:54:49;;;;;;;38.90;20.60;;;-3.60;99.90;;;;;;5088976;28;20043;-86
2022/12/14 00:57:15;;;;;;;48.67;21.58;;;-3.60;99.90;;;;;;5105201;28;20040;-85
2022/12/14 00:59:40;;;;;;;35.25;18.52;;;-3.70;99.90;;;;;;5090086;28;20044;-85
2022/12/14 01:02:06;;;;;;;33.47;18.20;;;-3.70;99.90;;;;;;5103858;28;20061;-85
2022/12/14 01:04:32;;;;;;;38.60;18.08;;;-3.80;99.90;;;;;;5105878;28;20044;-86
2022/12/14 01:06:58;;;;;;;34.45;17.58;;;-3.90;99.90;;;;;;5103869;28;20040;-86
2022/12/14 01:09:25;;;;;;;36.40;18.20;;;-3.90;99.90;;;;;;5106820;28;20135;-85
2022/12/14 01:11:52;;;;;;;36.55;19.75;;;-4.00;99.90;;;;;;5088492;28;20051;-86
2022/12/14 01:14:19;;;;;;;39.50;20.33;;;-4.00;99.90;;;;;;5103853;28;20118;-86
2022/12/14 01:16:45;;;;;;;38.80;19.45;;;-4.00;99.90;;;;;;5107933;28;20044;-85
2022/12/14 01:19:13;;;;;;;38.80;18.85;;;-4.10;99.90;;;;;;5109116;28;20137;-85
2022/12/14 01:21:38;;;;;;;43.15;20.38;;;-4.10;99.90;;;;;;5112473;28;20047;-86
2022/12/14 01:24:05;;;;;;;34.30;19.45;;;-4.10;99.90;;;;;;5110497;28;20492;-86
2022/12/14 01:26:36;;;;;;;40.03;18.65;;;-4.10;99.90;;;;;;5113296;28;20157;-85
2022/12/14 01:29:03;;;;;;;34.38;19.30;;;-4.10;99.90;;;;;;5112872;28;20039;-86
2022/12/14 01:31:32;;;;;;;42.75;19.50;;;-4.20;99.90;;;;;;5097373;28;20083;-85
2022/12/14 01:33:57;;;;;;;36.38;19.00;;;-4.20;99.90;;;;;;5100602;28;20101;-85
2022/12/14 01:36:26;;;;;;;35.15;17.70;;;-4.20;99.90;;;;;;5113909;28;20498;-85
2022/12/14 01:38:54;;;;;;;41.38;19.45;;;-4.20;99.90;;;;;;5114968;28;20102;-86
2022/12/14 01:41:35;;;;;;;37.00;18.90;;;-4.30;99.90;;;;;;5111280;28;20043;-85
2022/12/14 01:44:21;;;;;;;36.53;19.30;;;-4.40;99.90;;;;;;5111203;28;20543;-84
2022/12/14 01:46:49;;;;;;;38.08;18.80;;;-4.40;99.90;;;;;;5112901;28;20048;-86
2022/12/14 01:49:24;;;;;;;39.70;18.58;;;-4.50;99.90;;;;;;5103949;28;20503;-86
2022/12/14 01:52:09;;;;;;;40.05;21.38;;;-4.50;99.90;;;;;;5105660;28;20368;-86
2022/12/14 01:54:40;;;;;;;34.53;18.58;;;-4.60;99.90;;;;;;5108297;28;20047;-86
2022/12/14 01:57:06;;;;;;;41.50;20.08;;;-4.60;99.90;;;;;;5106894;28;20116;-86
2022/12/14 01:59:38;;;;;;;42.40;19.10;;;-4.70;99.90;;;;;;5106830;28;20132;-86
2022/12/14 02:02:06;;;;;;;38.47;19.05;;;-4.80;99.90;;;;;;5104508;28;20429;-87
2022/12/14 02:04:41;;;;;;;35.90;18.73;;;-4.90;99.90;;;;;;5105987;28;20047;-86
2022/12/14 02:07:08;;;;;;;39.08;18.75;;;-4.90;99.90;;;;;;5104102;28;20056;-86
2022/12/14 02:09:39;;;;;;;38.03;19.67;;;-5.00;99.90;;;;;;5106719;28;20047;-86
2022/12/14 02:12:16;;;;;;;36.38;18.45;;;-5.00;99.90;;;;;;5122468;27;20490;-86
2022/12/14 02:14:43;;;;;;;38.60;18.90;;;-5.10;99.90;;;;;;5106874;28;20053;-86
2022/12/14 02:17:12;;;;;;;35.28;18.80;;;-4.40;99.90;;;;;;5128262;28;20126;-86
2022/12/14 02:19:38;;;;;;;32.42;18.20;;;-5.10;99.90;;;;;;5125388;28;20449;-86
2022/12/14 02:22:34;;;;;;;44.78;19.77;;;-5.20;99.90;;;;;;5094945;27;20572;-86
2022/12/14 02:25:19;;;;;;;38.30;18.60;;;-5.20;99.90;;;;;;5131533;27;20058;-86
2022/12/14 02:28:01;;;;;;;36.75;19.27;;;-5.20;99.90;;;;;;5128846;27;20088;-86
2022/12/14 02:30:33;;;;;;;41.40;20.65;;;-5.20;99.90;;;;;;5132081;27;20054;-86
2022/12/14 02:33:33;;;;;;;32.85;14.43;;;-5.30;99.90;;;;;;5129727;27;20035;-86
2022/12/14 02:36:27;;;;;;;41.05;19.23;;;-5.40;99.90;;;;;;5110063;27;20051;-86
2022/12/14 02:39:23;;;;;;;36.95;19.30;;;-5.40;99.90;;;;;;5095700;27;20047;-86
2022/12/14 02:42:21;;;;;;;35.53;18.67;;;-5.40;99.90;;;;;;5093855;27;20107;-86
2022/12/14 02:45:21;;;;;;;44.85;21.13;;;-5.40;99.90;;;;;;5109785;27;20047;-86
2022/12/14 02:47:56;;;;;;;34.70;17.70;;;-5.40;99.90;;;;;;5095044;27;20055;-87
2022/12/14 02:50:48;;;;;;;39.63;20.05;;;-5.50;99.90;;;;;;5093365;27;20047;-86
2022/12/14 02:53:25;;;;;;;38.80;18.95;;;-5.60;99.90;;;;;;5109745;27;20046;-85
2022/12/14 02:55:53;;;;;;;35.80;19.10;;;-5.60;99.90;;;;;;5095582;27;20134;-85
2022/12/14 02:58:40;;;;;;;39.40;18.02;;;-5.60;99.90;;;;;;5092116;27;20099;-86
2022/12/14 03:01:13;;;;;;;35.08;18.80;;;-5.70;99.90;;;;;;5111619;27;20402;-86
2022/12/14 03:03:39;;;;;;;39.75;18.92;;;-5.70;99.90;;;;;;5110717;27;20047;-85
2022/12/14 03:06:13;;;;;;;38.38;19.00;;;-5.80;99.90;;;;;;5092544;27;20082;-86
2022/12/14 03:08:42;;;;;;;33.38;17.33;;;-5.90;99.90;;;;;;5095223;27;20057;-86
2022/12/14 03:11:12;;;;;;;35.40;19.20;;;-5.90;99.90;;;;;;5108410;27;20054;-86
2022/12/14 03:13:49;;;;;;;38.95;18.95;;;-6.00;99.90;;;;;;5094826;27;20122;-86
2022/12/14 03:16:21;;;;;;;35.00;18.00;;;-6.00;99.90;;;;;;5110452;27;20216;-86
2022/12/14 03:19:06;;;;;;;27.85;13.57;;;-6.00;99.90;;;;;;5109993;27;20046;-85
2022/12/14 03:21:35;;;;;;;39.90;19.70;;;-6.00;99.90;;;;;;5112264;27;20096;-86
2022/12/14 03:24:07;;;;;;;44.25;21.35;;;-6.10;99.90;;;;;;5108545;27;20085;-87
2022/12/14 03:26:49;;;;;;;28.45;14.45;;;-6.00;99.90;;;;;;5111258;27;20043;-85
2022/12/14 03:29:28;;;;;;;45.08;19.13;;;-6.00;99.90;;;;;;5110130;27;20043;-86
2022/12/14 03:32:01;;;;;;;39.80;19.92;;;-4.80;99.90;;;;;;5109005;27;20614;-86
2022/12/14 03:34:48;;;;;;;43.35;20.52;;;-6.10;99.90;;;;;;5111249;27;20088;-86
2022/12/14 03:37:20;;;;;;;40.45;18.90;;;-6.10;99.90;;;;;;5108895;27;20071;-85
2022/12/14 03:39:46;;;;;;;37.80;19.40;;;-6.10;99.90;;;;;;5110540;27;20430;-85
2022/12/14 03:42:34;;;;;;;46.35;20.95;;;-6.20;99.90;;;;;;5092955;27;20035;-86
2022/12/14 03:45:17;;;;;;;42.05;19.50;;;-6.20;99.90;;;;;;5108256;27;20517;-86
2022/12/14 03:47:42;;;;;;;39.00;18.52;;;-6.20;99.90;;;;;;5094666;27;20399;-85
2022/12/14 03:50:10;;;;;;;40.35;20.30;;;-6.20;99.90;;;;;;5108383;27;20054;-85
2022/12/14 03:52:42;;;;;;;36.97;19.40;;;-6.20;99.90;;;;;;5110675;27;20129;-86
2022/12/14 03:55:17;;;;;;;37.78;18.92;;;-6.20;99.90;;;;;;5110247;27;20108;-86
2022/12/14 03:58:00;;;;;;;35.90;19.55;;;-6.20;99.90;;;;;;5091906;27;20042;-86
2022/12/14 04:00:30;;;;;;;38.40;19.73;;;-6.30;99.90;;;;;;5094125;27;20046;-86
2022/12/14 04:03:06;;;;;;;37.55;18.45;;;-6.20;99.90;;;;;;5092271;27;20457;-87
2022/12/14 04:05:41;;;;;;;36.95;17.05;;;-6.30;99.90;;;;;;5110258;27;20053;-86
2022/12/14 04:08:28;;;;;;;34.85;17.73;;;-6.30;99.90;;;;;;5110172;27;20047;-86
2022/12/14 04:19:44;;;;;;;41.35;20.00;;;-6.40;99.90;;;;;;5109104;27;20078;-86
2022/12/14 04:22:20;;;;;;;42.85;19.45;;;-6.40;99.90;;;;;;5093483;27;20045;-85
2022/12/14 04:27:49;;;;;;;33.92;17.00;;;-6.40;99.90;;;;;;5108277;27;20116;-86
2022/12/14 04:30:15;;;;;;;36.95;19.35;;;-6.40;99.90;;;;;;5110212;27;20039;-86
2022/12/14 04:32:47;;;;;;;37.20;18.48;;;-6.40;99.90;;;;;;5125609;27;20189;-87
2022/12/14 04:35:28;;;;;;;37.42;18.30;;;-6.40;99.90;;;;;;5110123;27;20070;-86
2022/12/14 04:38:03;;;;;;;39.35;19.00;;;-6.50;99.90;;;;;;5091857;27;20047;-86
2022/12/14 04:40:52;;;;;;;38.90;19.08;;;-6.50;99.90;;;;;;5108926;27;20086;-86
2022/12/14 04:43:22;;;;;;;36.28;17.33;;;-6.50;99.90;;;;;;5109882;27;20079;-86
2022/12/14 04:45:49;;;;;;;43.15;19.83;;;-6.50;99.90;;;;;;5107365;27;20053;-86
2022/12/14 04:48:25;;;;;;;41.53;19.77;;;-6.50;99.90;;;;;;5109638;27;20485;-86
2022/12/14 04:51:00;;;;;;;38.50;18.42;;;-6.50;99.90;;;;;;5091221;27;20035;-86
2022/12/14 04:53:29;;;;;;;36.90;19.40;;;-6.50;99.90;;;;;;5108189;27;20043;-85
2022/12/14 04:56:19;;;;;;;45.30;19.83;;;-6.60;99.90;;;;;;5109211;27;20092;-86
2022/12/14 04:58:45;;;;;;;38.83;18.05;;;-6.60;99.90;;;;;;5089952;27;20581;-85
2022/12/14 05:01:31;;;;;;;40.25;20.17;;;-6.50;99.90;;;;;;5109202;27;20133;-85
2022/12/14 05:04:28;;;;;;;37.92;18.75;;;-6.60;99.90;;;;;;5108720;27;20043;-85
2022/12/14 05:07:22;;;;;;;42.38;20.73;;;-6.60;99.90;;;;;;5107843;27;20070;-85
2022/12/14 05:10:03;;;;;;;41.70;19.25;;;-6.30;99.90;;;;;;5093344;27;20047;-85
2022/12/14 05:12:57;;;;;;;37.95;19.38;;;-6.60;99.90;;;;;;5093848;27;20055;-85
2022/12/14 05:15:30;;;;;;;41.67;20.00;;;-6.60;99.90;;;;;;5110799;27;20062;-86
2022/12/14 05:18:01;;;;;;;40.67;19.73;;;-6.60;99.90;;;;;;5094681;27;20039;-87
2022/12/14 05:20:27;;;;;;;35.80;17.75;;;-6.60;99.90;;;;;;5109811;27;20035;-85
2022/12/14 05:22:53;;;;;;;40.92;18.48;;;-6.60;99.90;;;;;;5093305;27;20049;-86
2022/12/14 05:25:18;;;;;;;37.13;18.73;;;-6.70;99.90;;;;;;5091003;28;20043;-86
2022/12/14 05:27:45;;;;;;;47.78;21.35;;;-6.70;99.90;;;;;;5091538;28;20043;-85
2022/12/14 05:30:11;;;;;;;40.30;19.25;;;-6.70;99.90;;;;;;5092540;28;20088;-86
2022/12/14 05:32:37;;;;;;;38.35;19.60;;;-6.70;99.90;;;;;;5108144;28;20129;-86
2022/12/14 05:35:05;;;;;;;42.85;20.73;;;-6.70;99.90;;;;;;5110155;28;20047;-86
2022/12/14 05:37:31;;;;;;;40.17;19.63;;;-6.70;99.90;;;;;;5090139;28;20047;-86
2022/12/14 05:39:57;;;;;;;42.65;18.98;;;-6.70;99.90;;;;;;5109936;28;20096;-86
2022/12/14 05:42:22;;;;;;;40.58;20.10;;;-6.00;99.90;;;;;;5108807;28;20051;-86
2022/12/14 05:44:48;;;;;;;40.90;20.08;;;-6.70;99.90;;;;;;5091610;28;20420;-86
2022/12/14 05:47:14;;;;;;;44.03;19.40;;;-6.70;99.90;;;;;;5113032;28;20043;-86
2022/12/14 05:49:39;;;;;;;42.65;18.63;;;-6.70;99.90;;;;;;5078383;28;20054;-85
2022/12/14 05:52:05;;;;;;;46.63;21.52;;;-6.80;99.90;;;;;;5104552;28;20039;-87
2022/12/14 05:54:31;;;;;;;39.25;19.48;;;-6.70;99.90;;;;;;5120784;28;20079;-86
2022/12/14 05:56:56;;;;;;;44.22;21.08;;;-6.80;99.90;;;;;;5125030;27;20043;-86
2022/12/14 05:59:22;;;;;;;44.88;21.63;;;-6.80;99.90;;;;;;5124588;27;20496;-87
2022/12/14 06:01:48;;;;;;;39.50;20.25;;;-6.80;99.90;;;;;;5110673;27;20043;-89
2022/12/14 06:04:15;;;;;;;44.90;20.42;;;-6.80;99.90;;;;;;5126093;27;20055;-85
2022/12/14 06:06:41;;;;;;;46.08;20.65;;;-6.80;99.90;;;;;;5126410;27;20106;-89
2022/12/14 06:09:08;;;;;;;42.30;20.23;;;-5.80;99.90;;;;;;5126285;27;20040;-88
2022/12/14 06:11:39;;;;;;;47.30;19.63;;;-6.80;99.90;;;;;;5121990;27;20043;-87
2022/12/14 06:14:05;;;;;;;45.85;20.45;;;-6.80;99.90;;;;;;5103487;27;20051;-87
2022/12/14 06:16:31;;;;;;;43.58;19.38;;;-6.80;99.90;;;;;;5118476;27;20047;-89
2022/12/14 06:18:59;;;;;;;40.33;19.55;;;-6.80;99.90;;;;;;5102943;27;20530;-89
2022/12/14 06:21:32;;;;;;;47.78;20.30;;;-6.80;99.90;;;;;;5111576;27;20050;-84
2022/12/14 06:23:58;;;;;;;43.20;20.83;;;-6.80;99.90;;;;;;5112848;27;20039;-87
2022/12/14 06:26:25;;;;;;;40.33;20.70;;;-6.80;99.90;;;;;;5094531;27;20501;-87
2022/12/14 06:28:51;;;;;;;41.55;20.88;;;-5.60;99.90;;;;;;5076354;27;20078;-86
2022/12/14 06:31:29;;;;;;;42.85;20.73;;;-6.80;99.90;;;;;;5112157;27;20465;-87
2022/12/14 06:33:59;;;;;;;46.70;21.13;;;-6.80;99.90;;;;;;5111700;27;20130;-87
2022/12/14 06:36:33;;;;;;;41.50;19.73;;;-6.90;99.90;;;;;;5110421;27;20054;-86
2022/12/14 06:39:04;;;;;;;47.13;20.35;;;-6.80;99.90;;;;;;5111278;27;20074;-86
2022/12/14 06:41:30;;;;;;;50.20;21.80;;;-6.90;99.90;;;;;;5092829;27;20079;-85
2022/12/14 06:43:56;;;;;;;41.13;19.73;;;-6.90;99.90;;;;;;5094618;27;20450;-86
2022/12/14 06:46:23;;;;;;;46.25;20.75;;;-6.90;99.90;;;;;;5109283;27;20099;-84
2022/12/14 06:48:54;;;;;;;45.65;20.48;;;-6.90;99.90;;;;;;5093885;27;20126;-86
2022/12/14 06:51:21;;;;;;;44.97;20.15;;;-6.90;99.90;;;;;;5110531;27;20075;-89
2022/12/14 06:53:54;;;;;;;42.08;20.60;;;-6.90;99.90;;;;;;5110066;27;20043;-85
2022/12/14 06:56:22;;;;;;;42.45;20.65;;;-6.90;99.90;;;;;;5110504;27;20046;-85
2022/12/14 06:58:48;;;;;;;45.67;20.35;;;-6.90;99.90;;;;;;5109362;27;20054;-85
2022/12/14 07:01:17;;;;;;;46.80;20.00;;;-6.50;99.90;;;;;;5093539;27;20446;-84
2022/12/14 07:03:46;;;;;;;45.90;20.67;;;-6.90;99.90;;;;;;5092549;27;20050;-84
2022/12/14 07:06:12;;;;;;;46.00;20.92;;;-6.90;99.90;;;;;;5109812;27;20043;-86
2022/12/14 07:08:38;;;;;;;54.50;20.30;;;-6.90;99.90;;;;;;5109040;27;20493;-91
2022/12/14 07:11:06;;;;;;;43.20;20.77;;;-6.90;99.90;;;;;;5106069;28;20122;-87
2022/12/14 07:13:32;;;;;;;45.05;20.88;;;-6.90;99.90;;;;;;5106913;28;20055;-87
2022/12/14 07:15:59;;;;;;;46.60;20.80;;;-7.00;99.90;;;;;;5072399;28;20104;-88
2022/12/14 07:18:25;;;;;;;44.20;20.85;;;-7.00;99.90;;;;;;5090783;28;20390;-88
2022/12/14 07:21:01;;;;;;;39.90;20.08;;;-7.00;99.90;;;;;;5105846;28;20083;-87
2022/12/14 07:23:29;;;;;;;43.50;19.27;;;-7.00;99.90;;;;;;5089775;28;20051;-88
2022/12/14 07:26:11;;;;;;;47.88;21.73;;;-7.10;99.90;;;;;;5106785;28;20398;-87
2022/12/14 07:28:38;;;;;;;53.40;20.65;;;-7.10;99.90;;;;;;5088953;28;20541;-88
2022/12/14 07:31:07;;;;;;;41.28;18.65;;;-7.10;99.90;;;;;;5107333;28;20417;-87
2022/12/14 07:33:33;;;;;;;38.53;19.77;;;-7.10;99.90;;;;;;5105446;28;20105;-88
2022/12/14 07:36:11;;;;;;;40.17;19.23;;;-7.10;99.90;;;;;;5089650;28;20534;-88
2022/12/14 07:38:39;;;;;;;40.47;19.92;;;-7.20;99.90;;;;;;5106402;28;20043;-87
2022/12/14 07:41:08;;;;;;;44.72;19.17;;;-7.20;99.90;;;;;;5088613;28;20053;-87
2022/12/14 07:43:35;;;;;;;47.17;19.67;;;-7.20;99.90;;;;;;5105972;28;20111;-88
2022/12/14 07:46:03;;;;;;;39.67;19.77;;;-7.10;99.90;;;;;;5105124;28;20089;-87
2022/12/14 07:48:29;;;;;;;44.83;20.17;;;-7.10;99.90;;;;;;5089893;28;20043;-88
2022/12/14 07:51:04;;;;;;;47.30;21.33;;;-7.10;99.90;;;;;;5088297;28;20057;-88
2022/12/14 07:53:30;;;;;;;43.65;20.52;;;-7.10;99.90;;;;;;5105842;28;20100;-87
2022/12/14 07:56:06;;;;;;;39.55;20.40;;;-7.10;99.90;;;;;;5105755;28;20039;-87
2022/12/14 07:58:35;;;;;;;40.25;20.23;;;-7.10;99.90;;;;;;5105347;28;20032;-88
2022/12/14 08:01:11;;;;;;;46.35;19.52;;;-7.10;99.90;;;;;;5089178;28;20546;-87
2022/12/14 08:03:42;;;;;;;53.53;21.98;;;-7.10;99.90;;;;;;5087604;28;20048;-87
2022/12/14 08:06:10;;;;;;;48.22;21.60;;;-7.10;99.90;;;;;;5088985;28;20049;-87
2022/12/14 08:08:36;;;;;;;44.80;20.35;;;-7.10;99.90;;;;;;5088930;28;20119;-88
2022/12/14 08:11:02;;;;;;;41.05;19.02;;;-7.10;99.90;;;;;;5073547;27;20154;-87
2022/12/14 08:13:28;;;;;;;40.33;18.92;;;-7.10;99.90;;;;;;5092258;27;20134;-87
2022/12/14 08:15:54;;;;;;;46.78;20.90;;;-7.10;99.90;;;;;;5075123;27;20130;-87
2022/12/14 08:18:19;;;;;;;36.92;18.27;;;-7.10;99.90;;;;;;5092252;27;20046;-88
2022/12/14 08:20:51;;;;;;;45.00;20.63;;;-7.10;99.90;;;;;;5075511;27;20054;-87
2022/12/14 08:23:17;;;;;;;45.97;20.20;;;-7.10;99.90;;;;;;5092438;27;20104;-87
2022/12/14 08:25:43;;;;;;;46.78;19.85;;;-7.10;99.90;;;;;;5091742;27;20382;-87
2022/12/14 08:28:09;;;;;;;41.63;21.15;;;-7.00;99.90;;;;;;5108129;27;20043;-85
2022/12/14 08:30:39;;;;;;;51.05;21.55;;;-7.00;99.90;;;;;;5109022;27;20047;-86
2022/12/14 08:33:05;;;;;;;52.92;23.50;;;-7.00;99.90;;;;;;5108152;27;20131;-87
2022/12/14 08:35:32;;;;;;;47.85;21.00;;;-7.00;99.90;;;;;;5109126;27;20074;-87
2022/12/14 08:37:58;;;;;;;49.40;21.85;;;-6.90;99.90;;;;;;5108149;27;20047;-87
2022/12/14 08:40:24;;;;;;;49.92;22.52;;;-6.90;99.90;;;;;;5092015;27;20053;-87
2022/12/14 08:42:49;;;;;;;52.53;23.05;;;-6.80;99.90;;;;;;5091075;27;20039;-87
2022/12/14 08:45:15;;;;;;;45.55;21.33;;;-6.70;99.90;;;;;;5108570;27;20050;-87
2022/12/14 08:47:41;;;;;;;55.83;21.15;;;-6.60;99.90;;;;;;5092857;27;20472;-87
2022/12/14 08:50:07;;;;;;;52.83;22.08;;;-6.60;99.90;;;;;;5090667;27;20046;-86
2022/12/14 08:52:33;;;;;;;44.55;20.92;;;-6.50;99.90;;;;;;5091951;27;20393;-87
2022/12/14 08:54:59;;;;;;;47.53;23.05;;;-6.40;99.90;;;;;;5090414;27;20134;-87
2022/12/14 08:57:25;;;;;;;50.45;22.90;;;-6.40;99.90;;;;;;5108483;27;20070;-87
2022/12/14 08:59:50;;;;;;;52.47;22.65;;;-6.30;99.90;;;;;;5074015;27;20043;-87
2022/12/14 09:02:16;;;;;;;50.80;21.85;;;-7.40;99.90;;;;;;5107531;27;20035;-86
2022/12/14 09:04:42;;;;;;;54.33;24.02;;;-6.10;99.90;;;;;;5108201;27;20046;-86
2022/12/14 09:07:08;;;;;;;52.60;21.95;;;-6.00;99.90;;;;;;5073998;27;20045;-87
2022/12/14 09:09:34;;;;;;;44.15;21.88;;;-5.90;99.90;;;;;;5107745;27;20089;-87
2022/12/14 09:12:05;;;;;;;54.70;22.30;;;-5.70;99.90;;;;;;5090613;27;20126;-87
2022/12/14 09:14:32;;;;;;;50.63;23.35;;;-5.60;99.90;;;;;;5091454;27;20047;-87
2022/12/14 09:16:58;;;;;;;52.05;22.17;;;-5.50;99.90;;;;;;5107458;27;20172;-87
2022/12/14 09:19:23;;;;;;;47.70;21.85;;;-4.10;99.90;;;;;;5091242;27;20047;-86
2022/12/14 09:21:49;;;;;;;45.42;21.10;;;-5.30;99.90;;;;;;5091053;27;20039;-87
2022/12/14 09:24:15;;;;;;;49.13;22.15;;;-5.20;99.90;;;;;;5073350;28;20046;-86
2022/12/14 09:26:41;;;;;;;44.85;22.20;;;-5.10;99.90;;;;;;5107829;28;20128;-88
2022/12/14 09:29:06;;;;;;;45.60;20.75;;;-4.90;99.90;;;;;;5106812;28;20122;-88
2022/12/14 09:31:32;;;;;;;45.42;21.58;;;-4.40;99.90;;;;;;5107102;28;20115;-88
2022/12/14 09:33:58;;;;;;;49.90;21.63;;;-4.70;99.90;;;;;;5090221;28;20125;-89
2022/12/14 09:36:26;;;;;;;50.47;23.05;;;-4.60;99.90;;;;;;5107365;28;20043;-88
2022/12/14 09:38:54;;;;;;;48.45;23.02;;;-4.50;99.90;;;;;;5090527;28;20126;-88
2022/12/14 09:41:32;;;;;;;45.08;22.02;;;-4.40;99.90;;;;;;5107044;28;20050;-88
2022/12/14 09:44:07;;;;;;;53.15;22.33;;;-4.30;99.90;;;;;;5108059;28;20040;-89
2022/12/14 09:46:50;;;;;;;53.85;21.15;;;-4.10;99.90;;;;;;5107010;28;20050;-89
2022/12/14 09:49:29;;;;;;;;;;;-4.00;99.90;;;;;;5108564;28;20066;-89
2022/12/14 09:51:58;;;;;;;49.70;21.15;;;-3.90;99.90;;;;;;5107660;28;20297;-89
2022/12/14 09:54:34;;;;;;;42.92;21.02;;;-3.80;99.90;;;;;;5107497;28;20409;-88
2022/12/14 09:57:18;;;;;;;43.55;19.75;;;-3.60;99.90;;;;;;5107643;28;20054;-89
2022/12/14 09:59:44;;;;;;;48.72;20.40;;;-3.50;99.90;;;;;;5107611;28;20039;-89
2022/12/14 10:02:35;;;;;;;44.78;19.77;;;-3.40;99.90;;;;;;5091094;28;20043;-89
2022/12/14 10:05:39;;;;;;;38.80;19.38;;;-3.30;99.90;;;;;;5108360;28;20043;-88
2022/12/14 10:08:28;;;;;;;39.28;17.48;;;-3.20;99.90;;;;;;5107596;28;20047;-88
2022/12/14 10:11:02;;;;;;;32.78;16.42;;;-3.10;99.90;;;;;;5109325;27;20048;-88
2022/12/14 10:13:51;;;;;;;35.95;15.25;;;-3.00;99.90;;;;;;5112474;28;20051;-88
2022/12/14 10:16:25;;;;;;;35.60;17.05;;;-2.90;99.90;;;;;;5110093;28;20043;-88
2022/12/14 10:19:01;;;;;;;33.60;15.38;;;-2.80;99.90;;;;;;5092837;28;20089;-88
2022/12/14 10:21:52;;;;;;;32.58;16.27;;;-2.80;99.90;;;;;;5108258;28;20583;-87
2022/12/14 10:24:30;;;;;;;35.83;16.52;;;-2.70;99.90;;;;;;5111575;28;20063;-88
2022/12/14 10:26:56;;;;;;;31.17;15.23;;;-2.50;99.90;;;;;;5111646;28;20053;-88
2022/12/14 10:29:45;;;;;;;30.42;14.75;;;-2.50;99.90;;;;;;5076502;28;20039;-88
2022/12/14 10:32:29;;;;;;;30.92;15.52;;;-2.30;99.90;;;;;;5090546;28;20047;-88
2022/12/14 10:34:55;;;;;;;28.83;15.68;;;-2.30;99.90;;;;;;5107654;28;20047;-88
2022/12/14 10:37:27;;;;;;;26.10;13.80;;;-2.10;99.90;;;;;;5077231;28;20061;-87
2022/12/14 10:40:03;;;;;;;26.45;13.32;;;-2.00;99.90;;;;;;5115799;28;20058;-88
2022/12/14 10:43:06;;;;;;;23.20;13.27;;;-2.00;99.90;;;;;;5102110;27;20065;-87
2022/12/14 10:46:14;;;;;;;28.98;13.50;;;-1.80;99.90;;;;;;5104833;27;20043;-87
2022/12/14 10:48:51;;;;;;;24.00;13.05;;;-1.70;99.90;;;;;;5120216;27;20076;-87
2022/12/14 10:51:45;;;;;;;24.83;13.02;;;-1.60;99.90;;;;;;5097716;27;20127;-88
2022/12/14 10:54:37;;;;;;;26.50;13.80;;;-1.50;99.90;;;;;;5111647;27;20047;-87
2022/12/14 10:57:03;;;;;;;26.52;14.50;;;-1.40;99.90;;;;;;5112772;27;20387;-85
2022/12/14 10:59:34;;;;;;;27.48;13.63;;;-1.30;99.90;;;;;;5131034;27;20455;-87
2022/12/14 11:02:02;;;;;;;26.77;13.52;;;-1.20;99.90;;;;;;5113744;27;20062;-88
2022/12/14 11:04:32;;;;;;;32.35;15.38;;;-1.10;99.90;;;;;;5093906;27;20507;-88
2022/12/14 11:07:04;;;;;;;28.23;14.40;;;-1.00;99.90;;;;;;5111447;27;20047;-87
2022/12/14 11:09:31;;;;;;;20.05;10.25;;;-1.00;99.90;;;;;;5110481;27;20136;-87
2022/12/14 11:12:07;;;;;;;24.13;13.25;;;-0.90;99.90;;;;;;5109831;27;20402;-87
2022/12/14 11:14:35;;;;;;;28.17;12.77;;;-0.80;99.90;;;;;;5110178;27;20300;-87
2022/12/14 11:17:01;;;;;;;28.60;13.35;;;-0.70;99.90;;;;;;5092909;27;20043;-87
2022/12/14 11:19:27;;;;;;;22.08;11.77;;;-0.60;99.90;;;;;;5110263;27;20118;-87
2022/12/14 11:22:10;;;;;;;24.38;12.70;;;-0.50;99.90;;;;;;5109690;27;20486;-87
2022/12/14 11:24:45;;;;;;;23.23;12.65;;;-0.40;99.90;;;;;;5128192;27;20047;-87
2022/12/14 11:27:12;;;;;;;21.80;11.98;;;-0.30;99.90;;;;;;5109705;27;20051;-87
2022/12/14 11:29:39;;;;;;;23.90;12.27;;;-0.30;99.90;;;;;;5076223;27;20475;-86
2022/12/14 11:32:06;;;;;;;26.50;13.80;;;-0.20;99.90;;;;;;5092592;27;20122;-88
2022/12/14 11:34:39;;;;;;;23.95;12.35;;;-0.10;99.90;;;;;;5109025;27;20035;-87
2022/12/14 11:37:12;;;;;;;;;;;0.00;99.90;;;;;;5109767;27;20043;-87
2022/12/14 11:39:41;;;;;;;21.92;11.50;;;0.10;99.90;;;;;;5109483;27;19919;-87
2022/12/14 11:42:20;;;;;;;21.35;11.73;;;0.50;99.90;;;;;;5109105;27;20043;-87
2022/12/14 11:44:48;;;;;;;22.45;11.60;;;0.20;99.90;;;;;;5109240;27;20490;-87
2022/12/14 11:47:25;;;;;;;19.85;10.77;;;0.30;99.90;;;;;;5091597;27;20494;-87
2022/12/14 11:49:56;;;;;;;21.25;11.02;;;0.30;99.90;;;;;;5108967;27;20526;-86
2022/12/14 11:52:24;;;;;;;20.58;12.10;;;0.40;99.90;;;;;;5091619;27;20043;-87
2022/12/14 11:54:59;;;;;;;20.35;10.90;;;0.40;99.90;;;;;;5107995;27;20050;-87
2022/12/14 11:57:32;;;;;;;19.13;9.93;;;0.40;99.90;;;;;;5108862;27;20043;-88
2022/12/14 12:00:22;;;;;;;17.48;10.10;;;0.50;99.90;;;;;;5108527;27;20049;-87
2022/12/14 12:02:54;;;;;;;22.67;11.77;;;0.50;99.90;;;;;;5109103;27;20401;-86
2022/12/14 12:05:22;;;;;;;23.35;11.05;;;0.50;99.90;;;;;;5108512;27;20047;-87
2022/12/14 12:07:47;;;;;;;21.33;11.40;;;0.50;99.90;;;;;;5075022;27;20047;-87
2022/12/14 12:10:19;;;;;;;22.95;10.73;;;0.60;99.90;;;;;;5109218;27;20043;-87
2022/12/14 12:13:00;;;;;;;23.00;10.07;;;0.60;99.90;;;;;;5108461;27;20054;-87
2022/12/14 12:15:39;;;;;;;20.40;11.60;;;0.70;99.90;;;;;;5108547;27;20051;-87
2022/12/14 12:18:17;;;;;;;19.77;10.25;;;0.70;99.90;;;;;;5108405;27;20047;-86
2022/12/14 12:21:17;;;;;;;18.92;10.07;;;0.80;99.90;;;;;;5108779;27;20086;-87
2022/12/14 12:24:04;;;;;;;19.48;9.35;;;0.80;99.90;;;;;;5108403;27;20131;-87
2022/12/14 12:26:38;;;;;;;16.77;8.75;;;0.90;99.90;;;;;;5108128;27;20047;-87
2022/12/14 12:29:09;;;;;;;20.42;9.75;;;0.90;99.90;;;;;;5108105;27;20054;-87
2022/12/14 12:31:44;;;;;;;18.90;9.30;;;1.00;99.90;;;;;;5091874;27;20375;-87
2022/12/14 12:34:24;;;;;;;15.65;8.20;;;1.00;99.90;;;;;;5126517;27;20106;-87
2022/12/14 12:36:52;;;;;;;17.10;8.70;;;1.10;99.90;;;;;;5091254;27;20043;-88
2022/12/14 12:39:23;;;;;;;17.08;8.30;;;1.10;99.90;;;;;;5107843;27;20046;-87
2022/12/14 12:42:21;;;;;;;16.85;8.68;;;1.10;99.90;;;;;;5091164;27;20126;-87
2022/12/14 12:44:59;;;;;;;16.75;8.40;;;1.20;99.90;;;;;;5108236;27;20054;-88
2022/12/14 12:47:39;;;;;;;17.17;9.40;;;1.20;99.90;;;;;;5126284;27;20054;-87
2022/12/14 12:50:18;;;;;;;16.88;8.52;;;1.20;99.90;;;;;;5090725;27;20476;-87
2022/12/14 12:53:05;;;;;;;16.98;8.68;;;1.30;99.90;;;;;;5108188;27;20047;-87
2022/12/14 12:55:36;;;;;;;15.73;8.85;;;1.30;99.90;;;;;;5107809;27;20043;-87
2022/12/14 12:58:08;;;;;;;19.55;9.43;;;1.30;99.90;;;;;;5107921;27;20077;-88
2022/12/14 13:00:35;;;;;;;16.88;9.25;;;1.30;99.90;;;;;;5107374;27;20047;-87
2022/12/14 13:03:11;;;;;;;17.30;9.27;;;1.30;99.90;;;;;;5090865;27;20488;-87
2022/12/14 13:05:39;;;;;;;22.23;9.90;;;1.30;99.90;;;;;;5106663;27;20078;-88